Time;durP1;ratioP1;P1;durP2;ratioP2;P2;SDS_P1;SDS_P2;PMS_P1;PMS_P2;Temp;Humidity;BMP_temperature;BMP_pressure;BME280_temperature;BME280_humidity;BME280_pressure;Samples;Min_cycle;Max_cycle;Signal;HPM_P1;HPM_P2
2023/08/22 00:02:11;;;;;;;11.48;7.53;;;;;;;;;;5090767;28;20015;-71
2023/08/22 00:04:36;;;;;;;14.60;7.18;;;;;;;;;;5093571;28;20255;-71
2023/08/22 00:07:02;;;;;;;13.30;7.25;;;;;;;;;;5094900;28;20116;-72
2023/08/22 00:09:27;;;;;;;12.07;6.20;;;;;;;;;;5093081;28;20036;-71
2023/08/22 00:11:53;;;;;;;9.75;6.20;;;;;;;;;;5097666;28;20035;-71
2023/08/22 00:14:18;;;;;;;8.05;5.50;;;;;;;;;;5099180;28;20013;-72
2023/08/22 00:16:43;;;;;;;8.82;5.40;;;;;;;;;;5089337;28;20036;-71
2023/08/22 00:19:08;;;;;;;11.18;5.53;;;;;;;;;;5083401;28;20016;-71
2023/08/22 00:21:34;;;;;;;9.73;5.63;;;;;;;;;;5085573;28;20084;-71
2023/08/22 00:23:59;;;;;;;10.27;5.47;;;;;;;;;;5084446;28;20020;-71
2023/08/22 00:26:24;;;;;;;13.98;5.95;;;;;;;;;;5091972;28;20065;-71
2023/08/22 00:28:49;;;;;;;10.88;6.75;;;;;;;;;;5094726;28;20051;-71
2023/08/22 00:31:14;;;;;;;13.32;7.65;;;;;;;;;;5095005;28;20034;-70
2023/08/22 00:33:40;;;;;;;13.32;8.40;;;;;;;;;;5097870;28;20020;-70
2023/08/22 00:36:05;;;;;;;12.20;8.70;;;;;;;;;;5095927;28;20005;-71
2023/08/22 00:38:30;;;;;;;14.50;8.15;;;;;;;;;;5091372;28;20032;-71
2023/08/22 00:40:55;;;;;;;13.60;8.30;;;;;;;;;;5092149;28;20016;-72
2023/08/22 00:43:21;;;;;;;12.43;7.50;;;;;;;;;;5087285;28;20029;-70
2023/08/22 00:45:46;;;;;;;14.18;7.78;;;;;;;;;;5091191;28;20031;-71
2023/08/22 00:48:11;;;;;;;14.43;7.55;;;;;;;;;;5091897;28;20024;-71
2023/08/22 00:50:37;;;;;;;15.40;8.38;;;;;;;;;;5088007;28;20077;-71
2023/08/22 00:53:02;;;;;;;16.27;8.48;;;;;;;;;;5092253;28;20064;-71
2023/08/22 00:55:27;;;;;;;13.75;8.30;;;;;;;;;;5091369;28;20078;-71
2023/08/22 00:57:53;;;;;;;13.45;7.75;;;;;;;;;;5088897;28;20645;-70
2023/08/22 01:03:21;;;;;;;14.52;8.07;;;;;;;;;;5059808;28;20024;-71
2023/08/22 01:05:50;;;;;;;14.98;8.02;;;;;;;;;;5042764;28;20029;-71
2023/08/22 01:08:18;;;;;;;13.75;8.00;;;;;;;;;;5044633;28;20044;-71
2023/08/22 01:10:46;;;;;;;15.88;7.85;;;;;;;;;;5039223;28;20045;-72
2023/08/22 01:13:16;;;;;;;15.45;8.00;;;;;;;;;;5046392;28;20115;-71
2023/08/22 01:15:42;;;;;;;11.90;6.85;;;;;;;;;;5038180;28;20520;-71
2023/08/22 01:18:07;;;;;;;12.65;6.80;;;;;;;;;;5048484;28;20044;-71
2023/08/22 01:20:33;;;;;;;11.75;7.10;;;;;;;;;;5041391;28;20028;-72
2023/08/22 01:22:58;;;;;;;15.40;7.43;;;;;;;;;;5048642;28;20021;-71
2023/08/22 01:25:25;;;;;;;10.98;7.43;;;;;;;;;;5051396;28;20067;-72
2023/08/22 01:27:50;;;;;;;12.23;7.95;;;;;;;;;;5048019;28;20035;-71
2023/08/22 01:30:22;;;;;;;12.68;7.50;;;;;;;;;;5051044;28;20457;-71
2023/08/22 01:32:49;;;;;;;13.05;7.50;;;;;;;;;;5034239;28;20539;-71
2023/08/22 01:35:16;;;;;;;11.80;7.55;;;;;;;;;;5052549;28;20017;-71
2023/08/22 01:37:42;;;;;;;18.08;8.50;;;;;;;;;;5050743;28;20041;-71
2023/08/22 01:40:08;;;;;;;12.73;7.68;;;;;;;;;;5050700;28;20021;-71
2023/08/22 01:42:33;;;;;;;14.95;8.02;;;;;;;;;;5043570;28;20067;-72
2023/08/22 01:44:58;;;;;;;13.15;8.15;;;;;;;;;;5036597;28;20032;-71
2023/08/22 01:47:24;;;;;;;11.75;7.90;;;;;;;;;;5046353;28;20024;-71
2023/08/22 01:49:49;;;;;;;15.63;8.05;;;;;;;;;;5052727;28;20025;-71
2023/08/22 01:52:14;;;;;;;12.02;7.40;;;;;;;;;;5051970;28;20465;-71
2023/08/22 01:54:39;;;;;;;9.63;6.22;;;;;;;;;;5039106;28;20064;-72
2023/08/22 01:57:05;;;;;;;10.20;5.60;;;;;;;;;;5036689;28;20067;-72
2023/08/22 01:59:30;;;;;;;14.68;6.28;;;;;;;;;;5034752;28;20087;-71
2023/08/22 02:01:55;;;;;;;10.98;5.97;;;;;;;;;;5047678;28;20425;-72
2023/08/22 02:04:20;;;;;;;13.02;7.00;;;;;;;;;;5048035;28;20550;-71
2023/08/22 02:06:46;;;;;;;13.18;6.28;;;;;;;;;;5063409;28;20456;-72
2023/08/22 02:09:12;;;;;;;13.18;6.82;;;;;;;;;;5062918;28;20397;-71
2023/08/22 02:11:37;;;;;;;13.45;8.15;;;;;;;;;;5061879;28;20393;-71
2023/08/22 02:14:02;;;;;;;17.70;8.02;;;;;;;;;;5070002;28;20024;-71
2023/08/22 02:16:27;;;;;;;15.85;7.43;;;;;;;;;;5070231;28;20040;-71
2023/08/22 02:18:52;;;;;;;13.18;7.90;;;;;;;;;;5045008;28;20025;-71
2023/08/22 02:21:18;;;;;;;13.00;7.72;;;;;;;;;;5070193;28;20095;-71
2023/08/22 02:23:43;;;;;;;11.63;8.18;;;;;;;;;;5071733;28;20424;-71
2023/08/22 02:26:08;;;;;;;12.75;7.95;;;;;;;;;;5070844;28;20032;-71
2023/08/22 02:28:34;;;;;;;16.02;8.60;;;;;;;;;;5063250;28;20461;-70
2023/08/22 02:30:59;;;;;;;11.73;7.70;;;;;;;;;;5062404;28;20469;-71
2023/08/22 02:33:24;;;;;;;12.38;7.80;;;;;;;;;;5042312;28;20040;-71
2023/08/22 02:35:50;;;;;;;14.25;9.13;;;;;;;;;;5059737;28;20024;-70
2023/08/22 02:38:16;;;;;;;12.80;7.70;;;;;;;;;;5056308;28;20017;-70
2023/08/22 02:40:42;;;;;;;12.82;7.95;;;;;;;;;;5052583;28;20100;-70
2023/08/22 02:43:07;;;;;;;14.32;8.20;;;;;;;;;;5065415;28;20150;-70
2023/08/22 02:45:32;;;;;;;10.93;6.55;;;;;;;;;;5071132;28;20031;-70
2023/08/22 02:47:57;;;;;;;10.75;6.97;;;;;;;;;;5060174;28;20027;-70
2023/08/22 02:50:23;;;;;;;14.05;6.97;;;;;;;;;;5057416;28;20077;-71
2023/08/22 02:52:49;;;;;;;13.93;8.40;;;;;;;;;;5059110;28;20143;-70
2023/08/22 02:55:15;;;;;;;14.30;8.07;;;;;;;;;;5052764;28;20488;-70
2023/08/22 02:57:40;;;;;;;16.65;8.77;;;;;;;;;;5068197;28;20016;-70
2023/08/22 03:00:08;;;;;;;20.08;10.57;;;;;;;;;;5070121;28;20113;-70
2023/08/22 03:02:33;;;;;;;15.77;10.43;;;;;;;;;;5069984;28;20035;-70
2023/08/22 03:04:58;;;;;;;15.77;9.95;;;;;;;;;;5050789;28;20057;-70
2023/08/22 03:07:23;;;;;;;15.85;9.85;;;;;;;;;;5047329;28;20021;-70
2023/08/22 03:09:49;;;;;;;17.42;9.65;;;;;;;;;;5048987;28;20087;-70
2023/08/22 03:12:14;;;;;;;19.83;9.65;;;;;;;;;;5050118;28;20017;-71
2023/08/22 03:14:40;;;;;;;17.65;8.57;;;;;;;;;;5049102;28;20021;-71
2023/08/22 03:17:05;;;;;;;17.90;9.75;;;;;;;;;;5041090;28;20028;-71
2023/08/22 03:19:30;;;;;;;18.70;9.48;;;;;;;;;;5045821;28;20025;-71
2023/08/22 03:21:58;;;;;;;17.60;9.85;;;;;;;;;;5036635;28;20025;-71
2023/08/22 03:24:24;;;;;;;13.05;8.40;;;;;;;;;;5040441;28;20491;-71
2023/08/22 03:26:49;;;;;;;13.95;8.57;;;;;;;;;;5050278;28;20033;-72
2023/08/22 03:29:14;;;;;;;12.48;7.55;;;;;;;;;;5048519;28;20036;-72
2023/08/22 03:31:39;;;;;;;15.02;7.93;;;;;;;;;;5045191;28;20075;-72
2023/08/22 03:34:05;;;;;;;15.82;9.93;;;;;;;;;;5049730;28;20027;-71
2023/08/22 03:36:31;;;;;;;13.90;8.15;;;;;;;;;;5049842;28;20100;-71
2023/08/22 03:38:56;;;;;;;11.88;7.45;;;;;;;;;;5049911;28;20020;-72
2023/08/22 03:41:22;;;;;;;12.35;7.75;;;;;;;;;;5050464;28;20058;-72
2023/08/22 03:43:47;;;;;;;12.18;8.13;;;;;;;;;;5049618;28;20028;-72
2023/08/22 03:46:12;;;;;;;20.77;10.10;;;;;;;;;;5049297;28;20021;-72
2023/08/22 03:48:37;;;;;;;15.80;9.40;;;;;;;;;;5054296;28;20107;-72
2023/08/22 03:51:06;;;;;;;16.67;9.00;;;;;;;;;;5040929;28;20428;-72
2023/08/22 03:53:33;;;;;;;14.23;8.98;;;;;;;;;;5040072;28;20022;-71
2023/08/22 03:55:58;;;;;;;16.77;10.75;;;;;;;;;;5054612;28;20423;-71
2023/08/22 03:58:24;;;;;;;18.20;11.48;;;;;;;;;;5053804;28;20036;-72
2023/08/22 04:00:49;;;;;;;20.35;11.13;;;;;;;;;;5053242;28;20032;-71
2023/08/22 04:03:14;;;;;;;18.00;10.82;;;;;;;;;;5054749;28;20448;-72
2023/08/22 04:05:42;;;;;;;18.13;10.73;;;;;;;;;;5066767;28;20342;-71
2023/08/22 04:08:07;;;;;;;15.52;9.23;;;;;;;;;;5072866;28;20052;-72
2023/08/22 04:10:32;;;;;;;14.00;9.13;;;;;;;;;;5056121;28;20441;-71
2023/08/22 04:12:58;;;;;;;16.75;8.93;;;;;;;;;;5055433;28;20021;-71
2023/08/22 04:15:23;;;;;;;11.70;8.40;;;;;;;;;;5068578;28;20021;-71
2023/08/22 04:17:48;;;;;;;10.35;8.23;;;;;;;;;;5063102;28;20017;-72
2023/08/22 04:20:13;;;;;;;14.68;9.30;;;;;;;;;;5072621;28;20123;-71
2023/08/22 04:22:42;;;;;;;16.48;10.02;;;;;;;;;;5065271;28;20520;-71
2023/08/22 04:25:11;;;;;;;18.20;10.88;;;;;;;;;;5063340;28;20044;-72
2023/08/22 04:27:36;;;;;;;16.45;10.73;;;;;;;;;;5069158;28;20029;-72
2023/08/22 04:30:02;;;;;;;19.75;10.50;;;;;;;;;;5055344;28;20028;-71
2023/08/22 04:32:27;;;;;;;16.60;10.68;;;;;;;;;;5055353;28;20024;-70
2023/08/22 04:34:52;;;;;;;18.05;10.25;;;;;;;;;;5055722;28;20040;-71
2023/08/22 04:37:18;;;;;;;12.35;8.90;;;;;;;;;;5070668;28;20434;-71
2023/08/22 04:39:43;;;;;;;11.80;8.00;;;;;;;;;;5069764;28;20036;-68
2023/08/22 04:42:08;;;;;;;16.58;8.13;;;;;;;;;;5059066;28;20488;-68
2023/08/22 04:44:33;;;;;;;11.45;7.68;;;;;;;;;;5057278;28;20054;-69
2023/08/22 04:46:59;;;;;;;11.48;6.90;;;;;;;;;;5056156;28;20025;-68
2023/08/22 04:49:24;;;;;;;10.60;7.28;;;;;;;;;;5069655;28;20021;-68
2023/08/22 04:51:49;;;;;;;14.18;8.30;;;;;;;;;;5068609;28;20028;-68
2023/08/22 04:54:14;;;;;;;16.83;9.35;;;;;;;;;;5067405;28;20013;-69
2023/08/22 04:56:40;;;;;;;16.70;10.98;;;;;;;;;;5064009;28;20025;-68
2023/08/22 04:59:05;;;;;;;12.68;8.05;;;;;;;;;;5062712;28;20032;-68
2023/08/22 05:01:31;;;;;;;14.43;8.15;;;;;;;;;;5063148;28;20100;-68
2023/08/22 05:03:56;;;;;;;14.40;7.63;;;;;;;;;;5061878;28;20076;-68
2023/08/22 05:06:21;;;;;;;13.52;8.40;;;;;;;;;;5061973;28;20028;-68
2023/08/22 05:08:46;;;;;;;15.57;9.00;;;;;;;;;;5057476;28;20029;-68
2023/08/22 05:11:11;;;;;;;15.38;8.32;;;;;;;;;;5059631;28;20029;-68
2023/08/22 05:13:37;;;;;;;11.07;7.13;;;;;;;;;;5066723;28;20028;-69
2023/08/22 05:16:02;;;;;;;9.75;6.20;;;;;;;;;;5063835;28;20068;-68
2023/08/22 05:18:27;;;;;;;12.63;6.43;;;;;;;;;;5063446;28;20021;-68
2023/08/22 05:20:53;;;;;;;12.15;7.63;;;;;;;;;;5056710;28;20017;-69
2023/08/22 05:23:18;;;;;;;17.08;8.45;;;;;;;;;;5069751;28;20086;-67
2023/08/22 05:25:43;;;;;;;12.45;7.43;;;;;;;;;;5065876;28;20110;-68
2023/08/22 05:28:08;;;;;;;11.93;7.65;;;;;;;;;;5058282;28;20020;-67
2023/08/22 05:30:37;;;;;;;8.52;6.60;;;;;;;;;;5054608;28;20016;-68
2023/08/22 05:33:03;;;;;;;12.40;7.35;;;;;;;;;;5068806;28;20008;-69
2023/08/22 05:35:28;;;;;;;10.90;7.10;;;;;;;;;;5056715;28;20028;-68
2023/08/22 05:37:53;;;;;;;12.38;7.10;;;;;;;;;;5057966;28;20071;-67
2023/08/22 05:40:19;;;;;;;13.23;6.90;;;;;;;;;;5057178;28;20028;-67
2023/08/22 05:42:44;;;;;;;14.65;8.23;;;;;;;;;;5059003;28;20029;-67
2023/08/22 05:45:09;;;;;;;14.82;7.43;;;;;;;;;;5056764;28;20035;-67
2023/08/22 05:47:34;;;;;;;16.15;7.55;;;;;;;;;;5056960;28;20025;-68
2023/08/22 05:50:00;;;;;;;13.55;7.38;;;;;;;;;;5061148;28;20473;-71
2023/08/22 05:52:25;;;;;;;13.20;7.80;;;;;;;;;;5062530;28;20127;-71
2023/08/22 05:54:50;;;;;;;14.05;8.10;;;;;;;;;;5058947;28;20075;-71
2023/08/22 05:57:16;;;;;;;13.50;8.18;;;;;;;;;;5053806;28;20024;-71
2023/08/22 05:59:41;;;;;;;16.42;7.03;;;;;;;;;;5053943;28;20060;-71
2023/08/22 06:02:07;;;;;;;15.45;7.28;;;;;;;;;;5055822;28;20029;-71
2023/08/22 06:04:32;;;;;;;11.13;6.75;;;;;;;;;;5053299;28;20052;-71
2023/08/22 06:06:57;;;;;;;13.15;6.93;;;;;;;;;;5063729;28;20434;-72
2023/08/22 06:09:23;;;;;;;13.25;6.80;;;;;;;;;;5056956;28;20036;-72
2023/08/22 06:11:48;;;;;;;14.85;6.85;;;;;;;;;;5059003;28;20052;-71
2023/08/22 06:14:13;;;;;;;15.43;6.43;;;;;;;;;;5056265;28;20024;-72
2023/08/22 06:16:39;;;;;;;12.38;6.80;;;;;;;;;;5060636;28;20029;-72
2023/08/22 06:19:04;;;;;;;11.68;7.10;;;;;;;;;;5055200;28;20425;-72
2023/08/22 06:21:30;;;;;;;12.02;6.75;;;;;;;;;;5053397;28;20053;-71
2023/08/22 06:23:56;;;;;;;17.77;7.85;;;;;;;;;;5055069;28;20028;-72
2023/08/22 06:26:22;;;;;;;13.77;7.68;;;;;;;;;;5053219;28;20025;-71
2023/08/22 06:28:47;;;;;;;11.77;7.18;;;;;;;;;;5053236;28;20385;-71
2023/08/22 06:31:12;;;;;;;13.27;7.00;;;;;;;;;;5054381;28;20089;-72
2023/08/22 06:33:37;;;;;;;10.93;7.55;;;;;;;;;;5053023;28;20492;-72
2023/08/22 06:36:03;;;;;;;11.15;7.05;;;;;;;;;;5053176;28;20024;-71
2023/08/22 06:38:28;;;;;;;14.35;6.93;;;;;;;;;;5053086;28;20487;-71
2023/08/22 06:40:53;;;;;;;15.23;7.13;;;;;;;;;;5052771;28;20100;-72
2023/08/22 06:43:19;;;;;;;14.45;6.57;;;;;;;;;;5052732;28;20037;-72
2023/08/22 06:45:44;;;;;;;15.95;6.68;;;;;;;;;;5052891;28;20058;-72
2023/08/22 06:48:09;;;;;;;13.25;6.28;;;;;;;;;;5052925;28;20422;-72
2023/08/22 06:50:35;;;;;;;9.40;5.50;;;;;;;;;;5052612;28;20504;-72
2023/08/22 06:53:00;;;;;;;9.30;5.88;;;;;;;;;;5061142;28;20070;-71
2023/08/22 06:55:25;;;;;;;13.35;6.25;;;;;;;;;;5070215;28;20020;-72
2023/08/22 06:57:50;;;;;;;11.18;6.18;;;;;;;;;;5071572;28;20020;-71
2023/08/22 07:00:16;;;;;;;11.52;6.28;;;;;;;;;;5069555;28;20079;-72
2023/08/22 07:02:42;;;;;;;12.45;6.13;;;;;;;;;;5053065;28;20035;-72
2023/08/22 07:05:08;;;;;;;9.77;5.90;;;;;;;;;;5036384;28;20041;-71
2023/08/22 07:07:34;;;;;;;11.60;5.93;;;;;;;;;;5045264;28;20017;-71
2023/08/22 07:09:59;;;;;;;9.73;5.70;;;;;;;;;;5051273;28;20029;-72
2023/08/22 07:12:24;;;;;;;10.48;5.80;;;;;;;;;;5051228;28;20045;-72
2023/08/22 07:14:49;;;;;;;11.40;5.45;;;;;;;;;;5051615;28;20013;-72
2023/08/22 07:17:15;;;;;;;10.52;5.95;;;;;;;;;;5050932;28;20013;-72
2023/08/22 07:19:40;;;;;;;9.10;5.47;;;;;;;;;;5051041;28;20040;-72
2023/08/22 07:22:05;;;;;;;8.82;5.50;;;;;;;;;;5050272;28;20024;-72
2023/08/22 07:24:30;;;;;;;10.55;5.57;;;;;;;;;;5051184;28;20146;-72
2023/08/22 07:26:56;;;;;;;10.32;5.72;;;;;;;;;;5051249;28;20021;-72
2023/08/22 07:29:21;;;;;;;12.95;5.80;;;;;;;;;;5051244;28;20350;-72
2023/08/22 07:31:46;;;;;;;13.75;5.70;;;;;;;;;;5023836;28;20017;-72
2023/08/22 07:34:11;;;;;;;14.05;5.72;;;;;;;;;;5032533;28;20020;-72
2023/08/22 07:36:37;;;;;;;12.95;5.70;;;;;;;;;;5032571;28;20092;-72
2023/08/22 07:39:03;;;;;;;10.55;5.50;;;;;;;;;;5032154;28;20025;-72
2023/08/22 07:41:28;;;;;;;11.73;5.25;;;;;;;;;;5032495;28;20488;-73
2023/08/22 07:43:53;;;;;;;9.77;5.25;;;;;;;;;;5032155;28;20430;-72
2023/08/22 07:46:19;;;;;;;11.60;4.93;;;;;;;;;;5032490;28;20049;-73
2023/08/22 07:48:44;;;;;;;13.45;5.80;;;;;;;;;;5031938;28;20390;-71
2023/08/22 07:51:10;;;;;;;12.32;5.97;;;;;;;;;;5032305;28;20014;-71
2023/08/22 07:53:36;;;;;;;9.38;5.57;;;;;;;;;;5045012;28;20017;-70
2023/08/22 07:56:01;;;;;;;12.63;6.13;;;;;;;;;;5050561;28;20024;-70
2023/08/22 07:58:26;;;;;;;10.07;6.00;;;;;;;;;;5050596;28;20066;-71
2023/08/22 08:00:51;;;;;;;13.18;5.50;;;;;;;;;;5047106;28;20049;-71
2023/08/22 08:03:16;;;;;;;12.55;5.72;;;;;;;;;;5033358;28;20013;-71
2023/08/22 08:05:42;;;;;;;13.40;6.35;;;;;;;;;;5052089;28;20027;-71
2023/08/22 08:08:07;;;;;;;11.20;6.03;;;;;;;;;;5058798;28;20466;-71
2023/08/22 08:10:34;;;;;;;13.73;5.72;;;;;;;;;;5052042;28;20040;-70
2023/08/22 08:12:59;;;;;;;11.63;5.30;;;;;;;;;;5051745;28;20021;-71
2023/08/22 08:15:24;;;;;;;14.85;5.47;;;;;;;;;;5051933;28;20017;-71
2023/08/22 08:17:50;;;;;;;10.20;5.50;;;;;;;;;;5051741;28;20016;-72
2023/08/22 08:20:15;;;;;;;11.52;5.30;;;;;;;;;;5051705;28;20103;-70
2023/08/22 08:22:40;;;;;;;14.05;5.18;;;;;;;;;;5058015;28;20021;-70
2023/08/22 08:25:06;;;;;;;9.98;5.30;;;;;;;;;;5055362;28;20017;-70
2023/08/22 08:27:31;;;;;;;11.18;5.53;;;;;;;;;;5051872;28;20024;-70
2023/08/22 08:29:57;;;;;;;10.68;5.28;;;;;;;;;;5052076;28;20508;-67
2023/08/22 08:32:23;;;;;;;11.88;5.70;;;;;;;;;;5053847;28;20100;-66
2023/08/22 08:34:48;;;;;;;12.38;5.13;;;;;;;;;;5055130;28;20467;-67
2023/08/22 08:37:13;;;;;;;11.95;5.22;;;;;;;;;;5056290;28;20009;-67
2023/08/22 08:39:38;;;;;;;9.70;4.93;;;;;;;;;;5055049;28;20025;-67
2023/08/22 08:42:09;;;;;;;11.23;4.65;;;;;;;;;;5055018;28;20020;-67
2023/08/22 08:44:36;;;;;;;9.05;4.93;;;;;;;;;;5054952;28;20017;-67
2023/08/22 08:47:01;;;;;;;11.23;5.05;;;;;;;;;;5055298;28;20020;-67
2023/08/22 08:49:27;;;;;;;10.10;4.40;;;;;;;;;;5054507;28;20024;-67
2023/08/22 08:51:52;;;;;;;8.98;4.20;;;;;;;;;;5054905;28;20023;-67
2023/08/22 08:54:19;;;;;;;8.45;4.72;;;;;;;;;;5070616;28;20087;-67
2023/08/22 08:56:44;;;;;;;10.77;4.40;;;;;;;;;;5054883;28;20020;-67
2023/08/22 08:59:10;;;;;;;9.85;3.83;;;;;;;;;;5055520;28;20013;-67
2023/08/22 09:01:36;;;;;;;8.73;3.92;;;;;;;;;;5058134;28;20055;-68
2023/08/22 09:04:02;;;;;;;8.57;3.90;;;;;;;;;;5054406;28;20401;-68
2023/08/22 09:06:27;;;;;;;10.18;4.22;;;;;;;;;;5054449;28;20100;-68
2023/08/22 09:09:08;;;;;;;8.50;3.60;;;;;;;;;;5054597;28;20108;-66
2023/08/22 09:11:33;;;;;;;6.65;3.38;;;;;;;;;;5056791;28;20074;-66
2023/08/22 09:13:59;;;;;;;8.68;3.47;;;;;;;;;;5073134;28;20024;-67
2023/08/22 09:16:24;;;;;;;7.35;3.00;;;;;;;;;;5073144;28;20020;-69
2023/08/22 09:18:50;;;;;;;7.90;2.97;;;;;;;;;;5073186;28;20019;-67
2023/08/22 09:21:16;;;;;;;10.93;3.20;;;;;;;;;;5072896;28;20021;-68
2023/08/22 09:23:42;;;;;;;7.38;2.90;;;;;;;;;;5072083;28;20020;-67
2023/08/22 09:26:08;;;;;;;6.68;2.75;;;;;;;;;;5073060;28;20016;-68
2023/08/22 09:28:38;;;;;;;8.27;2.72;;;;;;;;;;5073121;28;20096;-67
2023/08/22 09:31:03;;;;;;;6.90;3.13;;;;;;;;;;5073011;28;20508;-67
2023/08/22 09:33:28;;;;;;;7.40;2.85;;;;;;;;;;5071600;28;20110;-68
2023/08/22 09:35:57;;;;;;;5.83;2.20;;;;;;;;;;5073216;28;20016;-68
2023/08/22 09:38:22;;;;;;;8.00;3.05;;;;;;;;;;5072519;28;20580;-67
2023/08/22 09:40:51;;;;;;;8.25;3.25;;;;;;;;;;5072454;28;20069;-68
2023/08/22 09:43:19;;;;;;;7.60;2.93;;;;;;;;;;5072268;28;20142;-69
2023/08/22 09:45:44;;;;;;;5.22;2.63;;;;;;;;;;5072807;28;20095;-68
2023/08/22 09:48:13;;;;;;;8.95;3.03;;;;;;;;;;5054190;28;20053;-68
2023/08/22 09:50:40;;;;;;;7.13;2.58;;;;;;;;;;5053800;28;20469;-70
2023/08/22 09:53:06;;;;;;;5.65;2.60;;;;;;;;;;5058872;28;20021;-69
2023/08/22 09:55:33;;;;;;;8.20;2.80;;;;;;;;;;5053657;28;20096;-67
2023/08/22 09:57:59;;;;;;;7.80;3.00;;;;;;;;;;5053784;28;20075;-67
2023/08/22 10:00:27;;;;;;;7.57;2.30;;;;;;;;;;5061118;28;20093;-67
2023/08/22 10:02:54;;;;;;;5.05;1.92;;;;;;;;;;5053419;28;20020;-68
2023/08/22 10:05:20;;;;;;;4.65;1.65;;;;;;;;;;5053235;28;20090;-68
2023/08/22 10:07:45;;;;;;;6.53;1.90;;;;;;;;;;5053435;28;20028;-68
2023/08/22 10:10:10;;;;;;;3.95;1.35;;;;;;;;;;5053535;28;20025;-67
2023/08/22 10:12:36;;;;;;;6.50;1.60;;;;;;;;;;5056605;28;20465;-68
2023/08/22 10:15:05;;;;;;;6.50;1.80;;;;;;;;;;5053646;28;20009;-65
2023/08/22 10:17:31;;;;;;;4.65;1.17;;;;;;;;;;5052974;28;20370;-66
2023/08/22 10:20:16;;;;;;;4.15;1.10;;;;;;;;;;5053119;28;20082;-66
2023/08/22 10:22:41;;;;;;;5.28;1.70;;;;;;;;;;5053106;28;20021;-67
2023/08/22 10:25:06;;;;;;;6.70;2.00;;;;;;;;;;5053411;28;20032;-66
2023/08/22 10:27:32;;;;;;;5.15;1.50;;;;;;;;;;5063070;28;20037;-65
2023/08/22 10:30:13;;;;;;;5.38;1.77;;;;;;;;;;5071149;28;20012;-65
2023/08/22 10:32:39;;;;;;;3.85;1.60;;;;;;;;;;5065145;28;20016;-69
2023/08/22 10:35:24;;;;;;;3.78;1.20;;;;;;;;;;5058003;28;20025;-67
2023/08/22 10:37:51;;;;;;;4.97;1.70;;;;;;;;;;5059961;28;20060;-66
2023/08/22 10:40:27;;;;;;;4.43;1.85;;;;;;;;;;5062027;28;20028;-65
2023/08/22 10:43:03;;;;;;;5.35;1.95;;;;;;;;;;5057838;28;20376;-72
2023/08/22 10:45:35;;;;;;;3.83;1.40;;;;;;;;;;5066077;28;20024;-72
2023/08/22 10:48:04;;;;;;;5.90;1.67;;;;;;;;;;5052939;28;20031;-72
2023/08/22 10:50:31;;;;;;;7.35;2.00;;;;;;;;;;5052588;28;20081;-71
2023/08/22 10:53:10;;;;;;;7.00;2.10;;;;;;;;;;5059840;28;20015;-69
2023/08/22 10:55:36;;;;;;;6.57;2.28;;;;;;;;;;5067582;28;20023;-69
2023/08/22 10:58:02;;;;;;;5.22;1.95;;;;;;;;;;5071935;28;20078;-70
2023/08/22 11:00:28;;;;;;;6.47;2.22;;;;;;;;;;5059455;28;20032;-72
2023/08/22 11:02:57;;;;;;;6.85;1.90;;;;;;;;;;5052747;28;20020;-73
2023/08/22 11:05:22;;;;;;;5.15;1.83;;;;;;;;;;5058061;28;20041;-73
2023/08/22 11:07:48;;;;;;;6.80;2.00;;;;;;;;;;5070891;28;20090;-73
2023/08/22 11:10:18;;;;;;;8.30;2.03;;;;;;;;;;5062118;28;20032;-73
2023/08/22 11:12:46;;;;;;;4.80;1.70;;;;;;;;;;5052681;28;20017;-73
2023/08/22 11:15:14;;;;;;;5.32;1.80;;;;;;;;;;5062424;28;20021;-70
2023/08/22 11:17:40;;;;;;;4.57;1.58;;;;;;;;;;5054964;28;20021;-70
2023/08/22 11:20:26;;;;;;;4.43;1.77;;;;;;;;;;5053327;28;20044;-69
2023/08/22 11:22:53;;;;;;;5.82;1.90;;;;;;;;;;5062500;28;20489;-71
2023/08/22 11:25:25;;;;;;;5.88;1.80;;;;;;;;;;5052205;28;20017;-69
2023/08/22 11:27:50;;;;;;;4.38;1.70;;;;;;;;;;5052096;28;20096;-71
2023/08/22 11:30:17;;;;;;;5.03;1.80;;;;;;;;;;5055906;28;20108;-70
2023/08/22 11:32:42;;;;;;;7.35;2.17;;;;;;;;;;5052048;28;20472;-70
2023/08/22 11:35:08;;;;;;;4.32;1.92;;;;;;;;;;5052487;28;20128;-70
2023/08/22 11:37:42;;;;;;;6.28;3.10;;;;;;;;;;5052163;28;20045;-70
2023/08/22 11:40:09;;;;;;;4.38;1.65;;;;;;;;;;5056152;28;20020;-70
2023/08/22 11:42:36;;;;;;;4.10;1.63;;;;;;;;;;5055010;28;20025;-70
2023/08/22 11:45:04;;;;;;;5.22;1.73;;;;;;;;;;5052051;28;20021;-70
2023/08/22 11:47:42;;;;;;;5.00;1.85;;;;;;;;;;5051999;28;20412;-69
2023/08/22 11:50:15;;;;;;;4.78;1.50;;;;;;;;;;5052283;28;20369;-70
2023/08/22 11:52:47;;;;;;;3.67;1.30;;;;;;;;;;5058041;28;20013;-70
2023/08/22 11:55:16;;;;;;;6.80;1.67;;;;;;;;;;5070600;28;20017;-71
2023/08/22 11:57:41;;;;;;;4.22;1.33;;;;;;;;;;5070759;28;20016;-70
2023/08/22 12:00:09;;;;;;;4.05;1.27;;;;;;;;;;5071015;28;20488;-71
2023/08/22 12:02:35;;;;;;;3.20;1.20;;;;;;;;;;5070668;28;20033;-71
2023/08/22 12:05:01;;;;;;;36.28;4.00;;;;;;;;;;5070245;28;20051;-70
2023/08/22 12:07:26;;;;;;;7.57;1.23;;;;;;;;;;5045844;28;20388;-70
2023/08/22 12:10:02;;;;;;;54.97;4.30;;;;;;;;;;5055883;28;20071;-70
2023/08/22 12:12:29;;;;;;;61.42;4.65;;;;;;;;;;5071252;28;20479;-70
2023/08/22 12:14:54;;;;;;;8.85;1.40;;;;;;;;;;5074092;28;20523;-70
2023/08/22 12:17:19;;;;;;;3.38;1.10;;;;;;;;;;5061726;28;20020;-70
2023/08/22 12:19:44;;;;;;;5.22;1.20;;;;;;;;;;5055472;28;20481;-70
2023/08/22 12:22:10;;;;;;;3.47;1.20;;;;;;;;;;5055349;28;20040;-70
2023/08/22 12:24:35;;;;;;;5.60;1.10;;;;;;;;;;5055597;28;20025;-70
2023/08/22 12:27:00;;;;;;;3.65;1.00;;;;;;;;;;5055455;28;20024;-70
2023/08/22 12:29:25;;;;;;;6.20;3.28;;;;;;;;;;5055570;28;20415;-70
2023/08/22 12:31:51;;;;;;;3.25;1.10;;;;;;;;;;5072530;28;20464;-70
2023/08/22 12:34:16;;;;;;;5.82;1.10;;;;;;;;;;5072884;28;20017;-71
2023/08/22 12:36:41;;;;;;;6.00;1.00;;;;;;;;;;5069976;28;20013;-71
2023/08/22 12:39:10;;;;;;;4.40;1.05;;;;;;;;;;5055441;28;20028;-71
2023/08/22 12:41:36;;;;;;;4.35;1.40;;;;;;;;;;5055117;28;20092;-70
2023/08/22 12:44:01;;;;;;;2.22;0.93;;;;;;;;;;5055217;28;20020;-70
2023/08/22 12:46:27;;;;;;;3.35;1.00;;;;;;;;;;5055383;28;20027;-70
2023/08/22 12:48:52;;;;;;;4.00;0.90;;;;;;;;;;5054903;28;20027;-70
2023/08/22 12:51:17;;;;;;;2.92;0.80;;;;;;;;;;5054830;28;20075;-71
2023/08/22 12:53:42;;;;;;;7.13;1.83;;;;;;;;;;5062782;28;20021;-70
2023/08/22 12:56:07;;;;;;;3.38;1.05;;;;;;;;;;5054849;28;20075;-71
2023/08/22 12:58:33;;;;;;;3.72;1.25;;;;;;;;;;5062653;28;20024;-71
2023/08/22 13:00:58;;;;;;;5.57;1.90;;;;;;;;;;5055107;28;20016;-70
2023/08/22 13:03:24;;;;;;;3.85;0.90;;;;;;;;;;5054824;28;20021;-70
2023/08/22 13:05:49;;;;;;;4.93;1.30;;;;;;;;;;5054490;28;20104;-71
2023/08/22 13:08:14;;;;;;;3.10;1.10;;;;;;;;;;5054467;28;20100;-71
2023/08/22 13:10:39;;;;;;;4.32;1.10;;;;;;;;;;5057193;28;20024;-71
2023/08/22 13:13:05;;;;;;;3.90;1.13;;;;;;;;;;5072959;28;20020;-71
2023/08/22 13:15:30;;;;;;;4.47;1.20;;;;;;;;;;5072496;28;20025;-71
2023/08/22 13:17:55;;;;;;;4.25;1.23;;;;;;;;;;5066878;28;20024;-70
2023/08/22 13:20:22;;;;;;;3.83;1.10;;;;;;;;;;5054750;28;20013;-68
2023/08/22 13:22:47;;;;;;;3.95;1.30;;;;;;;;;;5054234;28;20017;-68
2023/08/22 13:25:12;;;;;;;4.47;1.50;;;;;;;;;;5054502;28;20019;-69
2023/08/22 13:27:39;;;;;;;6.68;1.50;;;;;;;;;;5054527;28;20488;-68
2023/08/22 13:30:05;;;;;;;4.70;1.60;;;;;;;;;;5054323;28;20044;-69
2023/08/22 13:32:30;;;;;;;6.15;1.17;;;;;;;;;;5057290;28;20499;-69
2023/08/22 13:34:55;;;;;;;2.95;1.02;;;;;;;;;;5072559;28;20020;-70
2023/08/22 13:37:21;;;;;;;3.30;1.00;;;;;;;;;;5072589;28;20178;-68
2023/08/22 13:39:46;;;;;;;4.60;2.17;;;;;;;;;;5071246;28;20023;-69
2023/08/22 13:42:12;;;;;;;2.55;1.00;;;;;;;;;;5072427;28;20024;-69
2023/08/22 13:44:37;;;;;;;4.80;1.60;;;;;;;;;;5072645;28;20123;-69
2023/08/22 13:47:03;;;;;;;4.53;1.23;;;;;;;;;;5072681;28;20023;-69
2023/08/22 13:49:28;;;;;;;5.32;1.38;;;;;;;;;;5072330;28;20078;-68
2023/08/22 13:51:53;;;;;;;6.45;1.17;;;;;;;;;;5072525;28;20082;-68
2023/08/22 13:54:21;;;;;;;3.65;0.95;;;;;;;;;;5072524;28;20491;-69
2023/08/22 13:56:47;;;;;;;3.95;1.10;;;;;;;;;;5072706;28;20537;-69
2023/08/22 13:59:12;;;;;;;3.83;1.40;;;;;;;;;;5072415;28;20103;-68
2023/08/22 14:01:37;;;;;;;4.65;1.60;;;;;;;;;;5072096;28;20020;-69
2023/08/22 14:04:03;;;;;;;3.13;1.10;;;;;;;;;;5060321;28;20489;-70
2023/08/22 14:06:28;;;;;;;3.47;1.15;;;;;;;;;;5051983;28;20024;-70
2023/08/22 14:08:53;;;;;;;4.82;1.38;;;;;;;;;;5051784;28;20021;-69
2023/08/22 14:11:18;;;;;;;4.30;1.20;;;;;;;;;;5052413;28;20048;-68
2023/08/22 14:13:44;;;;;;;3.33;1.10;;;;;;;;;;5052144;28;20024;-69
2023/08/22 14:16:10;;;;;;;3.95;1.20;;;;;;;;;;5052104;28;20020;-69
2023/08/22 14:18:35;;;;;;;3.60;1.23;;;;;;;;;;5051925;28;20009;-69
2023/08/22 14:21:00;;;;;;;5.03;1.30;;;;;;;;;;5037271;28;20063;-69
2023/08/22 14:23:25;;;;;;;5.25;0.93;;;;;;;;;;5033463;28;20013;-69
2023/08/22 14:25:50;;;;;;;6.35;1.00;;;;;;;;;;5033054;28;20067;-69
2023/08/22 14:28:16;;;;;;;3.25;1.00;;;;;;;;;;5033106;28;20059;-70
2023/08/22 14:30:41;;;;;;;6.82;1.25;;;;;;;;;;5033619;28;20025;-72
2023/08/22 14:33:06;;;;;;;4.82;1.30;;;;;;;;;;5041188;28;20041;-71